createdAt,value
2022-09-04T00:05:28.527Z,19.27
2022-09-04T00:10:24.515Z,19.22
2022-09-04T00:12:26.728Z,19.22
2022-09-04T00:13:52.309Z,19.22
2022-09-04T00:15:21.206Z,19.21
2022-09-04T00:16:50.117Z,19.18
2022-09-04T00:19:17.690Z,19.15
2022-09-04T00:21:16.938Z,19.15
2022-09-04T00:25:10.260Z,19.11
2022-09-04T00:30:06.590Z,19.08
2022-09-04T00:31:36.470Z,19.04
2022-09-04T00:33:05.327Z,19.02
2022-09-04T00:37:28.023Z,18.96
2022-09-04T00:41:23.730Z,18.92
2022-09-04T00:43:51.439Z,18.89
2022-09-04T00:48:13.903Z,18.83
2022-09-04T00:54:03.010Z,18.73
2022-09-04T00:56:00.764Z,18.66
2022-09-04T01:00:54.117Z,18.60
2022-09-04T01:03:51.638Z,18.56
2022-09-04T01:06:19.413Z,18.56
2022-09-04T01:07:48.292Z,18.53
2022-09-04T01:10:15.939Z,18.52
2022-09-04T01:12:44.246Z,18.50
2022-09-04T01:16:10.328Z,18.50
2022-09-04T01:18:37.162Z,18.47
2022-09-04T01:20:35.411Z,18.44
2022-09-04T01:24:02.371Z,18.38
2022-09-04T01:27:00.076Z,18.38
2022-09-04T01:29:56.614Z,18.34
2022-09-04T01:34:21.616Z,18.28
2022-09-04T01:35:51.486Z,18.26
2022-09-04T01:38:19.418Z,18.23
2022-09-04T01:45:08.490Z,18.19
2022-09-04T01:47:07.372Z,18.18
2022-09-04T01:48:36.557Z,18.16
2022-09-04T01:51:32.232Z,18.15
2022-09-04T01:53:02.256Z,18.13
2022-09-04T02:00:24.966Z,18.01
2022-09-04T02:02:21.286Z,17.98
2022-09-04T02:03:50.141Z,17.95
2022-09-04T02:05:48.888Z,17.95
2022-09-04T02:07:48.233Z,17.92
2022-09-04T02:13:58.614Z,17.85
2022-09-04T02:16:56.267Z,17.82
2022-09-04T02:18:55.073Z,17.82
2022-09-04T02:21:22.781Z,17.79
2022-09-04T02:23:21.836Z,17.74
2022-09-04T02:25:19.617Z,17.76
2022-09-04T02:36:50.914Z,17.64
2022-09-04T02:41:45.816Z,17.60
2022-09-04T02:45:39.750Z,17.56
2022-09-04T02:47:37.511Z,17.52
2022-09-04T02:50:33.198Z,17.51
2022-09-04T02:52:02.123Z,17.52
2022-09-04T02:53:31.979Z,17.49
2022-09-04T02:55:00.915Z,17.49
2022-09-04T02:57:57.666Z,17.46
2022-09-04T03:03:11.938Z,17.44
2022-09-04T03:07:06.999Z,17.41
2022-09-04T03:09:05.805Z,17.36
2022-09-04T03:10:34.782Z,17.38
2022-09-04T03:14:00.451Z,17.34
2022-09-04T03:15:29.331Z,17.30
2022-09-04T03:20:20.563Z,17.24
2022-09-04T03:21:49.765Z,17.23
2022-09-04T03:25:35.585Z,17.20
2022-09-04T03:29:20.211Z,17.15
2022-09-04T03:31:37.871Z,17.14
2022-09-04T03:34:34.353Z,17.12
2022-09-04T03:37:31.121Z,17.09
2022-09-04T03:47:43.342Z,17.05
2022-09-04T03:49:11.792Z,17.04
2022-09-04T03:51:39.498Z,17.02
2022-09-04T03:57:29.286Z,16.99
2022-09-04T03:59:27.127Z,16.97
2022-09-04T04:00:57.309Z,16.97
2022-09-04T04:03:55.668Z,16.93
2022-09-04T04:05:54.788Z,16.91
2022-09-04T04:07:24.654Z,16.90
2022-09-04T04:13:15.894Z,16.86
2022-09-04T04:14:45.984Z,16.86
2022-09-04T04:16:15.876Z,16.84
2022-09-04T04:17:46.164Z,16.83
2022-09-04T04:19:15.936Z,16.83
2022-09-04T04:22:51.856Z,16.79
2022-09-04T04:30:30.436Z,16.75
2022-09-04T04:33:17.971Z,16.72
2022-09-04T04:34:47.311Z,16.72
2022-09-04T04:36:45.746Z,16.72
2022-09-04T04:38:45.036Z,16.71
2022-09-04T04:40:15.007Z,16.69
2022-09-04T04:43:40.918Z,16.68
2022-09-04T04:45:09.820Z,16.68
2022-09-04T04:48:06.858Z,16.66
2022-09-04T04:50:33.469Z,16.66
2022-09-04T04:53:02.463Z,16.64
2022-09-04T04:58:27.811Z,16.61
2022-09-04T05:02:23.688Z,16.58
2022-09-04T05:06:09.277Z,16.58
2022-09-04T05:07:38.131Z,16.58
2022-09-04T05:09:07.048Z,16.60
2022-09-04T05:12:33.183Z,16.58
2022-09-04T05:14:03.105Z,16.61
2022-09-04T05:16:09.813Z,16.60
2022-09-04T05:18:28.922Z,16.60
2022-09-04T05:24:51.895Z,16.61
2022-09-04T05:26:50.996Z,16.60
2022-09-04T05:29:46.959Z,16.61
2022-09-04T05:32:16.429Z,16.61
2022-09-04T05:34:13.739Z,16.61
2022-09-04T05:35:42.696Z,16.61
2022-09-04T05:37:11.957Z,16.58
2022-09-04T05:38:40.552Z,16.60
2022-09-04T05:40:39.366Z,16.60
2022-09-04T05:46:23.943Z,16.64
2022-09-04T05:48:51.088Z,16.65
2022-09-04T05:50:21.349Z,16.66
2022-09-04T05:51:49.034Z,16.68
2022-09-04T05:53:17.903Z,16.71
2022-09-04T05:54:46.769Z,16.74
2022-09-04T05:56:15.753Z,16.74
2022-09-04T05:58:13.735Z,16.76
2022-09-04T05:59:44.158Z,16.76
2022-09-04T06:05:34.819Z,16.84
2022-09-04T06:07:03.678Z,16.86
2022-09-04T06:10:30.225Z,16.90
2022-09-04T06:12:30.070Z,16.93
2022-09-04T06:14:00.024Z,16.94
2022-09-04T06:16:55.776Z,16.99
2022-09-04T06:19:51.489Z,17.05
2022-09-04T06:23:17.475Z,17.11
2022-09-04T06:24:45.894Z,17.12
2022-09-04T06:28:41.774Z,17.20
2022-09-04T06:30:10.633Z,17.24
2022-09-04T06:33:26.432Z,17.29
2022-09-04T06:39:16.712Z,17.41
2022-09-04T06:42:13.725Z,17.46
2022-09-04T06:44:40.404Z,17.52
2022-09-04T06:47:08.115Z,17.57
2022-09-04T06:49:34.742Z,17.64
2022-09-04T06:51:03.622Z,17.68
2022-09-04T06:57:55.734Z,17.89
2022-09-04T06:59:53.540Z,17.92
2022-09-04T07:01:22.450Z,17.98
2022-09-04T07:02:52.302Z,18.00
2022-09-04T07:04:22.271Z,18.04
2022-09-04T07:12:11.250Z,18.29
2022-09-04T07:14:09.137Z,18.33
2022-09-04T07:17:04.939Z,18.44
2022-09-04T07:25:25.941Z,18.66
2022-09-04T07:27:23.679Z,18.75
2022-09-04T07:29:42.461Z,18.83
2022-09-04T07:31:11.381Z,18.88
2022-09-04T07:36:36.527Z,19.08
2022-09-04T07:38:35.223Z,19.14
2022-09-04T07:40:32.336Z,19.22
2022-09-04T07:44:56.842Z,19.39
2022-09-04T07:47:24.475Z,19.49
2022-09-04T07:49:51.103Z,19.58
2022-09-04T07:53:48.678Z,19.69
2022-09-04T08:01:59.736Z,19.99
2022-09-04T08:05:25.440Z,20.10
2022-09-04T08:06:55.318Z,20.18
2022-09-04T08:09:50.804Z,20.28
2022-09-04T08:12:18.278Z,20.37
2022-09-04T08:13:47.119Z,20.40
2022-09-04T08:15:16.008Z,20.43
2022-09-04T08:16:44.891Z,20.51
2022-09-04T08:19:02.463Z,20.60
2022-09-04T08:20:31.262Z,20.66
2022-09-04T08:23:57.958Z,20.77
2022-09-04T08:25:26.804Z,20.82
2022-09-04T08:26:56.703Z,20.87
2022-09-04T08:28:55.483Z,20.96
2022-09-04T08:33:49.887Z,21.12
2022-09-04T08:38:16.582Z,21.30
2022-09-04T08:39:46.470Z,21.35
2022-09-04T08:41:16.361Z,21.42
2022-09-04T08:44:12.106Z,21.54
2022-09-04T08:46:39.464Z,21.64
2022-09-04T08:48:39.230Z,21.73
2022-09-04T08:52:33.981Z,21.85
2022-09-04T08:55:58.648Z,21.93
2022-09-04T08:58:25.447Z,22.02
2022-09-04T09:04:21.960Z,22.25
2022-09-04T09:05:51.777Z,22.29
2022-09-04T09:07:49.684Z,22.36
2022-09-04T09:10:17.567Z,22.44
2022-09-04T09:14:12.337Z,22.57
2022-09-04T09:17:38.822Z,22.66
2022-09-04T09:21:34.064Z,22.80
2022-09-04T09:31:50.266Z,23.08
2022-09-04T09:39:09.151Z,23.31
2022-09-04T09:41:08.128Z,23.40
2022-09-04T09:52:19.417Z,23.80
2022-09-04T09:54:49.477Z,23.92
2022-09-04T09:56:18.789Z,23.98
2022-09-04T09:59:13.986Z,24.14
2022-09-04T10:01:12.899Z,24.24
2022-09-04T10:02:42.717Z,24.29
2022-09-04T10:04:11.654Z,24.32
2022-09-04T10:08:08.165Z,24.48
2022-09-04T10:10:08.072Z,24.63
2022-09-04T10:12:06.086Z,24.70
2022-09-04T10:14:04.972Z,24.88
2022-09-04T10:17:30.524Z,25.08
2022-09-04T10:19:00.565Z,25.18
2022-09-04T10:20:29.402Z,25.33
2022-09-04T10:21:58.335Z,25.50
2022-09-04T10:23:27.255Z,25.63
2022-09-04T10:26:53.773Z,25.91
2022-09-04T10:28:51.598Z,26.10
2022-09-04T10:34:47.058Z,26.52
2022-09-04T10:39:40.547Z,26.77
2022-09-04T10:41:38.618Z,26.90
2022-09-04T10:44:34.902Z,26.97
2022-09-04T10:46:03.901Z,27.07
2022-09-04T10:47:33.034Z,27.11
2022-09-04T10:51:57.169Z,27.33
2022-09-04T10:53:31.079Z,27.37
2022-09-04T10:54:56.302Z,27.36
2022-09-04T10:56:25.230Z,27.42
2022-09-04T10:57:54.209Z,27.49
2022-09-04T11:03:45.334Z,27.90
2022-09-04T11:20:18.215Z,28.52
2022-09-04T11:23:07.653Z,28.67
2022-09-04T11:31:20.780Z,28.97
2022-09-04T11:32:52.880Z,28.98
2022-09-04T11:34:27.951Z,28.88
2022-09-04T11:36:29.305Z,28.81
2022-09-04T11:40:48.256Z,29.01
2022-09-04T11:44:16.021Z,29.12
2022-09-04T11:46:15.117Z,29.22
2022-09-04T11:57:26.942Z,29.50
2022-09-04T11:59:29.205Z,29.31
2022-09-04T12:01:08.540Z,29.14
2022-09-04T12:05:25.395Z,28.86
2022-09-04T12:11:09.837Z,28.51
2022-09-04T12:18:55.026Z,28.11
2022-09-04T12:20:47.062Z,28.14
2022-09-04T12:23:55.348Z,28.39
2022-09-04T12:25:25.564Z,28.51
2022-09-04T12:30:52.667Z,29.04
2022-09-04T12:34:07.981Z,29.36
2022-09-04T12:36:42.220Z,29.60
2022-09-04T12:39:25.191Z,29.75
2022-09-04T12:40:55.429Z,29.78
2022-09-04T12:42:27.528Z,29.84
2022-09-04T12:44:19.776Z,29.94
2022-09-04T12:46:18.707Z,30.08
2022-09-04T12:52:16.797Z,30.28
2022-09-04T12:54:21.162Z,30.40
2022-09-04T12:59:52.848Z,30.61
2022-09-04T13:02:12.059Z,30.57
2022-09-04T13:04:09.617Z,30.54
2022-09-04T13:07:11.049Z,30.40
2022-09-04T13:09:53.451Z,30.35
2022-09-04T13:12:10.804Z,30.37
2022-09-04T13:14:02.968Z,30.35
2022-09-04T13:15:32.941Z,30.35
2022-09-04T13:18:28.426Z,30.34
2022-09-04T13:20:28.946Z,30.28
2022-09-04T13:24:39.929Z,30.15
2022-09-04T13:27:35.145Z,30.25
2022-09-04T13:30:08.005Z,30.27
2022-09-04T13:31:39.932Z,30.16
2022-09-04T13:34:27.577Z,30.02
2022-09-04T13:36:02.408Z,29.87
2022-09-04T13:37:32.622Z,29.75
2022-09-04T13:39:30.024Z,29.59
2022-09-04T13:42:59.268Z,29.26
2022-09-04T13:45:17.769Z,29.12
2022-09-04T13:47:32.203Z,29.02
2022-09-04T13:50:25.527Z,28.93
2022-09-04T13:51:53.608Z,28.88
2022-09-04T13:54:53.448Z,28.93
2022-09-04T13:57:43.180Z,28.88
2022-09-04T13:59:14.956Z,28.86
2022-09-04T14:06:19.355Z,28.82
2022-09-04T14:08:25.260Z,28.78
2022-09-04T14:10:32.097Z,28.85
2022-09-04T14:13:37.798Z,28.88
2022-09-04T14:15:49.167Z,28.85
2022-09-04T14:19:10.000Z,28.89
2022-09-04T14:22:34.725Z,28.85
2022-09-04T14:30:52.809Z,29.01
2022-09-04T14:32:22.311Z,29.02
2022-09-04T14:34:33.771Z,28.96
2022-09-04T14:42:51.338Z,28.93
2022-09-04T14:45:36.875Z,28.85
2022-09-04T14:47:06.872Z,28.81
2022-09-04T14:48:56.751Z,28.79
2022-09-04T14:52:15.124Z,28.85
2022-09-04T14:53:45.190Z,28.85
2022-09-04T14:58:02.483Z,28.84
2022-09-04T14:59:47.384Z,28.85
2022-09-04T15:03:15.914Z,28.84
2022-09-04T15:06:04.566Z,28.72
2022-09-04T15:08:45.739Z,28.63
2022-09-04T15:12:30.772Z,28.52
2022-09-04T15:14:18.689Z,28.47
2022-09-04T15:16:10.487Z,28.44
2022-09-04T15:17:52.595Z,28.39
2022-09-04T15:19:23.405Z,28.35
2022-09-04T15:20:54.428Z,28.30
2022-09-04T15:22:25.800Z,28.26
2022-09-04T15:24:26.674Z,28.20
2022-09-04T15:26:04.485Z,28.19
2022-09-04T15:27:40.800Z,28.14
2022-09-04T15:29:58.220Z,28.08
2022-09-04T15:31:46.242Z,28.04
2022-09-04T15:33:29.236Z,28.05
2022-09-04T15:34:50.996Z,28.00
2022-09-04T15:36:40.812Z,27.96
2022-09-04T15:38:11.752Z,27.98
2022-09-04T15:39:45.727Z,28.00
2022-09-04T15:41:16.938Z,28.01
2022-09-04T15:43:22.449Z,27.98
2022-09-04T15:44:33.573Z,28.02
2022-09-04T15:46:25.371Z,28.02
2022-09-04T15:47:54.304Z,28.04
2022-09-04T15:54:02.695Z,28.11
2022-09-04T15:55:33.033Z,28.07
2022-09-04T16:14:33.455Z,27.92
2022-09-04T16:17:02.812Z,27.86
2022-09-04T16:19:12.301Z,27.83
2022-09-04T16:22:19.552Z,27.82
2022-09-04T16:25:00.852Z,27.77
2022-09-04T16:27:44.222Z,27.75
2022-09-04T16:29:16.794Z,27.73
2022-09-04T16:30:49.954Z,27.74
2022-09-04T16:36:26.884Z,27.59
2022-09-04T16:39:27.242Z,27.55
2022-09-04T16:41:38.340Z,27.51
2022-09-04T16:43:06.580Z,27.49
2022-09-04T16:44:56.344Z,27.47
2022-09-04T16:48:34.000Z,27.44
2022-09-04T16:52:03.398Z,27.37
2022-09-04T16:54:28.833Z,27.33
2022-09-04T16:59:17.005Z,27.20
2022-09-04T17:01:51.034Z,27.14
2022-09-04T17:06:33.114Z,27.11
2022-09-04T17:08:26.464Z,27.10
2022-09-04T17:14:24.506Z,26.99
2022-09-04T17:15:54.854Z,26.97
2022-09-04T17:20:16.025Z,26.93
2022-09-04T17:28:11.467Z,26.93
2022-09-04T17:29:08.056Z,26.90
2022-09-04T17:40:53.465Z,26.84
2022-09-04T17:44:27.275Z,26.66
2022-09-04T17:45:57.156Z,26.63
2022-09-04T17:47:53.256Z,26.62
2022-09-04T17:52:36.212Z,26.55
2022-09-04T17:54:26.565Z,26.53
2022-09-04T17:55:55.560Z,26.53
2022-09-04T17:58:16.078Z,26.51
2022-09-04T17:59:51.588Z,26.45
2022-09-04T18:03:27.935Z,26.41
2022-09-04T18:05:55.774Z,26.34
2022-09-04T18:14:08.145Z,26.18
2022-09-04T18:15:42.702Z,26.13
2022-09-04T18:17:13.994Z,26.09
2022-09-04T18:24:46.477Z,25.93
2022-09-04T18:26:42.036Z,25.84
2022-09-04T18:37:20.117Z,25.68
2022-09-04T18:37:25.848Z,25.54
2022-09-04T18:37:40.499Z,25.59
2022-09-04T18:38:44.631Z,25.48
2022-09-04T18:40:43.745Z,25.44
2022-09-04T18:50:24.612Z,25.32
2022-09-04T18:50:29.499Z,25.26
2022-09-04T18:51:15.123Z,25.11
2022-09-04T18:52:45.405Z,25.04
2022-09-04T18:54:22.253Z,25.01
2022-09-04T18:56:54.184Z,24.93
2022-09-04T18:58:44.820Z,24.88
2022-09-04T19:01:06.114Z,24.80
2022-09-04T19:05:14.440Z,24.66
2022-09-04T19:12:16.416Z,24.48
2022-09-04T19:13:49.844Z,24.45
2022-09-04T19:16:14.514Z,24.40
2022-09-04T19:17:42.284Z,24.38
2022-09-04T19:22:13.693Z,24.30
2022-09-04T19:23:44.803Z,24.29
2022-09-04T19:25:34.304Z,24.24
2022-09-04T19:27:33.924Z,24.23
2022-09-04T19:30:50.923Z,24.21
2022-09-04T19:32:20.637Z,24.20
2022-09-04T19:34:11.315Z,24.18
2022-09-04T19:39:11.501Z,24.14
2022-09-04T19:46:17.428Z,24.03
2022-09-04T19:46:43.411Z,24.01
2022-09-04T19:53:20.030Z,23.92
2022-09-04T19:54:57.845Z,23.83
2022-09-04T19:57:56.912Z,23.76
2022-09-04T19:59:40.106Z,23.71
2022-09-04T20:01:09.165Z,23.68
2022-09-04T20:05:12.125Z,23.59
2022-09-04T20:07:27.590Z,23.51
2022-09-04T20:10:18.575Z,23.46
2022-09-04T20:14:15.695Z,23.39
2022-09-04T20:16:08.437Z,23.36
2022-09-04T20:18:39.734Z,23.27
2022-09-04T20:20:40.173Z,23.25
2022-09-04T20:25:11.530Z,23.20
2022-09-04T20:30:12.322Z,23.13
2022-09-04T20:32:43.208Z,23.09
2022-09-04T20:35:13.826Z,23.08
2022-09-04T20:40:49.403Z,23.02
2022-09-04T20:48:36.303Z,23.00
2022-09-04T20:52:42.143Z,23.00
2022-09-04T20:52:58.421Z,23.00
2022-09-04T20:53:00.035Z,22.99
2022-09-04T20:53:45.368Z,23.00
2022-09-04T21:03:16.995Z,23.00
2022-09-04T21:03:27.908Z,23.00
2022-09-04T21:06:31.844Z,23.02
2022-09-04T21:08:59.990Z,23.00
2022-09-04T21:15:40.130Z,22.96
2022-09-04T21:19:31.130Z,22.91
2022-09-04T21:22:30.332Z,22.90
2022-09-04T21:26:58.111Z,22.87
2022-09-04T21:28:31.173Z,22.84
2022-09-04T21:36:56.438Z,22.76
2022-09-04T21:38:46.056Z,22.73
2022-09-04T21:41:19.039Z,22.73
2022-09-04T21:43:09.876Z,22.72
2022-09-04T21:47:33.974Z,22.68
2022-09-04T21:49:55.776Z,22.65
2022-09-04T21:51:28.806Z,22.63
2022-09-04T21:52:55.921Z,22.62
2022-09-04T21:54:37.934Z,22.60
2022-09-04T22:01:16.790Z,22.57
2022-09-04T22:02:45.492Z,22.53
2022-09-04T22:04:06.508Z,22.44
2022-09-04T22:10:08.395Z,22.39
2022-09-04T22:13:31.762Z,22.36
2022-09-04T22:16:23.841Z,22.25
2022-09-04T22:19:39.294Z,22.18
2022-09-04T22:22:37.465Z,22.13
2022-09-04T22:24:41.081Z,22.11
2022-09-04T22:27:19.797Z,22.10
2022-09-04T22:29:54.288Z,22.07
2022-09-04T22:33:09.453Z,22.04
2022-09-04T22:35:48.858Z,21.99
2022-09-04T22:44:37.461Z,21.93
2022-09-04T22:47:32.830Z,21.89
2022-09-04T22:49:12.973Z,21.89
2022-09-04T22:50:48.762Z,21.85
2022-09-04T22:52:44.084Z,21.85
2022-09-04T22:56:23.370Z,21.80
2022-09-04T22:57:24.786Z,21.79
2022-09-04T22:59:26.621Z,21.76
2022-09-04T23:03:22.199Z,21.73
2022-09-04T23:13:10.832Z,21.70
2022-09-04T23:13:56.568Z,21.64
2022-09-04T23:15:26.166Z,21.60
2022-09-04T23:26:44.649Z,21.51
2022-09-04T23:26:50.539Z,21.50
2022-09-04T23:27:11.825Z,21.46
2022-09-04T23:31:29.160Z,21.45
2022-09-04T23:33:07.134Z,21.46
2022-09-04T23:34:40.089Z,21.45
2022-09-04T23:39:17.650Z,21.39
2022-09-04T23:41:06.036Z,21.39
2022-09-04T23:43:36.500Z,21.37
2022-09-04T23:47:48.612Z,21.36
2022-09-04T23:50:15.261Z,21.36
2022-09-04T23:56:56.191Z,21.33
